Tabarka, Tunisia
Current Conditions -  °F | °C
As of 1:00 AM on Thursday 23 Oct 2014 (Local Time) from DTKA Reporting Station
Scattered Clouds Scattered Clouds  
Wind Chill: 66°   Ceiling: Unl
Heat Index: 66°   Visibility: 6mi
Dew Point: 50°   Wind: 23mph
Humidity: 56%   Direction: 330°NNW
Pressure: 30.03"   Gusts: NA
Location:  36.96°N, 8.75°E
Report Text: DTKA 230000Z 33020KT 9999 SCT020 SCT030 19/10 Q1017 NOSIG
Loading
Personal Weather Stations






























Interactive Weather Map
Tropical Storm Tracking
New forecast layout! Learn more

10-Day Weather Forecast

Advertisements
Track Severe Weather on mobile